sensor_id;sensor_type;location;lat;lon;timestamp;P1;durP1;ratioP1;P2;durP2;ratioP2
59167;SDS011;70412;55.048;73.268;2023-07-29T00:01:36;8.25;;;5.50;;
59167;SDS011;70412;55.048;73.268;2023-07-29T00:04:39;7.20;;;5.10;;
59167;SDS011;70412;55.048;73.268;2023-07-29T00:07:41;11.35;;;5.80;;
59167;SDS011;70412;55.048;73.268;2023-07-29T00:10:44;9.25;;;5.32;;
59167;SDS011;70412;55.048;73.268;2023-07-29T00:13:47;8.48;;;5.35;;
59167;SDS011;70412;55.048;73.268;2023-07-29T00:16:51;10.23;;;6.07;;
59167;SDS011;70412;55.048;73.268;2023-07-29T00:19:54;9.48;;;5.57;;
59167;SDS011;70412;55.048;73.268;2023-07-29T00:22:56;12.23;;;5.70;;
59167;SDS011;70412;55.048;73.268;2023-07-29T00:25:59;8.27;;;5.30;;
59167;SDS011;70412;55.048;73.268;2023-07-29T00:29:02;11.88;;;5.28;;
59167;SDS011;70412;55.048;73.268;2023-07-29T00:32:09;11.48;;;5.74;;
59167;SDS011;70412;55.048;73.268;2023-07-29T00:35:12;11.13;;;6.03;;
59167;SDS011;70412;55.048;73.268;2023-07-29T00:38:15;8.98;;;5.75;;
59167;SDS011;70412;55.048;73.268;2023-07-29T00:41:17;7.90;;;5.00;;
59167;SDS011;70412;55.048;73.268;2023-07-29T00:44:20;8.57;;;5.43;;
59167;SDS011;70412;55.048;73.268;2023-07-29T00:47:23;8.70;;;5.63;;
59167;SDS011;70412;55.048;73.268;2023-07-29T00:50:27;10.60;;;5.90;;
59167;SDS011;70412;55.048;73.268;2023-07-29T00:53:31;11.00;;;5.65;;
59167;SDS011;70412;55.048;73.268;2023-07-29T00:56:33;9.18;;;5.40;;
59167;SDS011;70412;55.048;73.268;2023-07-29T00:59:37;8.55;;;5.45;;
59167;SDS011;70412;55.048;73.268;2023-07-29T01:02:39;8.60;;;5.43;;
59167;SDS011;70412;55.048;73.268;2023-07-29T01:06:18;11.63;;;5.65;;
59167;SDS011;70412;55.048;73.268;2023-07-29T01:09:43;9.23;;;5.13;;
59167;SDS011;70412;55.048;73.268;2023-07-29T01:13:28;8.50;;;6.40;;
59167;SDS011;70412;55.048;73.268;2023-07-29T01:16:43;13.13;;;6.43;;
59167;SDS011;70412;55.048;73.268;2023-07-29T01:20:03;11.60;;;6.38;;
59167;SDS011;70412;55.048;73.268;2023-07-29T01:23:10;13.43;;;6.00;;
59167;SDS011;70412;55.048;73.268;2023-07-29T01:26:12;12.52;;;6.55;;
59167;SDS011;70412;55.048;73.268;2023-07-29T01:29:16;15.77;;;6.50;;
59167;SDS011;70412;55.048;73.268;2023-07-29T01:33:04;9.65;;;5.03;;
59167;SDS011;70412;55.048;73.268;2023-07-29T01:36:03;9.75;;;4.93;;
59167;SDS011;70412;55.048;73.268;2023-07-29T01:39:15;11.63;;;5.45;;
59167;SDS011;70412;55.048;73.268;2023-07-29T01:42:20;8.70;;;5.53;;
59167;SDS011;70412;55.048;73.268;2023-07-29T01:45:25;15.57;;;6.35;;
59167;SDS011;70412;55.048;73.268;2023-07-29T01:48:28;12.98;;;6.72;;
59167;SDS011;70412;55.048;73.268;2023-07-29T01:51:32;11.65;;;6.20;;
59167;SDS011;70412;55.048;73.268;2023-07-29T01:54:34;12.93;;;6.22;;
59167;SDS011;70412;55.048;73.268;2023-07-29T01:57:37;9.98;;;6.43;;
59167;SDS011;70412;55.048;73.268;2023-07-29T02:00:39;14.63;;;6.85;;
59167;SDS011;70412;55.048;73.268;2023-07-29T02:03:42;17.63;;;8.88;;
59167;SDS011;70412;55.048;73.268;2023-07-29T02:06:45;20.05;;;10.18;;
59167;SDS011;70412;55.048;73.268;2023-07-29T02:09:47;24.70;;;9.95;;
59167;SDS011;70412;55.048;73.268;2023-07-29T02:12:50;14.73;;;8.75;;
59167;SDS011;70412;55.048;73.268;2023-07-29T02:15:52;20.45;;;9.40;;
59167;SDS011;70412;55.048;73.268;2023-07-29T02:18:55;11.57;;;8.43;;
59167;SDS011;70412;55.048;73.268;2023-07-29T02:21:58;14.23;;;9.52;;
59167;SDS011;70412;55.048;73.268;2023-07-29T02:25:01;12.23;;;8.48;;
59167;SDS011;70412;55.048;73.268;2023-07-29T02:28:04;13.27;;;9.57;;
59167;SDS011;70412;55.048;73.268;2023-07-29T02:31:12;13.80;;;9.90;;
59167;SDS011;70412;55.048;73.268;2023-07-29T02:34:19;13.45;;;9.85;;
59167;SDS011;70412;55.048;73.268;2023-07-29T02:37:21;15.73;;;10.65;;
59167;SDS011;70412;55.048;73.268;2023-07-29T02:40:24;15.60;;;9.93;;
59167;SDS011;70412;55.048;73.268;2023-07-29T02:43:28;17.02;;;10.30;;
59167;SDS011;70412;55.048;73.268;2023-07-29T02:46:31;20.98;;;12.77;;
59167;SDS011;70412;55.048;73.268;2023-07-29T02:49:33;16.42;;;10.40;;
59167;SDS011;70412;55.048;73.268;2023-07-29T02:52:36;13.07;;;9.52;;
59167;SDS011;70412;55.048;73.268;2023-07-29T02:55:41;10.35;;;8.52;;
59167;SDS011;70412;55.048;73.268;2023-07-29T02:58:43;13.35;;;10.48;;
59167;SDS011;70412;55.048;73.268;2023-07-29T03:01:46;14.05;;;10.07;;
59167;SDS011;70412;55.048;73.268;2023-07-29T03:04:49;15.82;;;10.23;;
59167;SDS011;70412;55.048;73.268;2023-07-29T03:07:51;14.85;;;10.23;;
59167;SDS011;70412;55.048;73.268;2023-07-29T03:10:54;13.02;;;10.38;;
59167;SDS011;70412;55.048;73.268;2023-07-29T03:13:59;12.70;;;9.63;;
59167;SDS011;70412;55.048;73.268;2023-07-29T03:17:04;12.95;;;9.63;;
59167;SDS011;70412;55.048;73.268;2023-07-29T03:20:07;17.80;;;10.32;;
59167;SDS011;70412;55.048;73.268;2023-07-29T03:23:12;13.77;;;11.63;;
59167;SDS011;70412;55.048;73.268;2023-07-29T03:26:15;21.08;;;13.25;;
59167;SDS011;70412;55.048;73.268;2023-07-29T03:29:17;14.45;;;11.27;;
59167;SDS011;70412;55.048;73.268;2023-07-29T03:32:20;15.10;;;10.77;;
59167;SDS011;70412;55.048;73.268;2023-07-29T03:35:22;14.50;;;11.80;;
59167;SDS011;70412;55.048;73.268;2023-07-29T03:38:25;14.35;;;10.68;;
59167;SDS011;70412;55.048;73.268;2023-07-29T03:41:28;15.00;;;10.77;;
59167;SDS011;70412;55.048;73.268;2023-07-29T03:44:30;17.30;;;10.27;;
59167;SDS011;70412;55.048;73.268;2023-07-29T03:47:33;12.02;;;9.85;;
59167;SDS011;70412;55.048;73.268;2023-07-29T03:50:36;15.38;;;11.40;;
59167;SDS011;70412;55.048;73.268;2023-07-29T03:53:39;25.48;;;15.48;;
59167;SDS011;70412;55.048;73.268;2023-07-29T03:56:41;43.13;;;21.92;;
59167;SDS011;70412;55.048;73.268;2023-07-29T03:59:45;22.42;;;13.95;;
59167;SDS011;70412;55.048;73.268;2023-07-29T04:02:48;74.90;;;30.63;;
59167;SDS011;70412;55.048;73.268;2023-07-29T04:05:53;84.28;;;31.00;;
59167;SDS011;70412;55.048;73.268;2023-07-29T04:08:58;78.75;;;32.38;;
59167;SDS011;70412;55.048;73.268;2023-07-29T04:12:01;39.20;;;17.83;;
59167;SDS011;70412;55.048;73.268;2023-07-29T04:15:04;58.95;;;26.25;;
59167;SDS011;70412;55.048;73.268;2023-07-29T04:18:07;26.77;;;15.55;;
59167;SDS011;70412;55.048;73.268;2023-07-29T04:21:10;16.40;;;11.90;;
59167;SDS011;70412;55.048;73.268;2023-07-29T04:24:13;14.75;;;10.95;;
59167;SDS011;70412;55.048;73.268;2023-07-29T04:27:15;17.92;;;11.60;;
59167;SDS011;70412;55.048;73.268;2023-07-29T04:30:18;16.02;;;11.77;;
59167;SDS011;70412;55.048;73.268;2023-07-29T04:33:20;15.27;;;11.00;;
59167;SDS011;70412;55.048;73.268;2023-07-29T04:36:23;14.80;;;11.23;;
59167;SDS011;70412;55.048;73.268;2023-07-29T04:39:27;21.98;;;12.70;;
59167;SDS011;70412;55.048;73.268;2023-07-29T04:42:29;13.30;;;10.88;;
59167;SDS011;70412;55.048;73.268;2023-07-29T04:45:32;11.87;;;10.40;;
59167;SDS011;70412;55.048;73.268;2023-07-29T04:48:35;32.85;;;17.05;;
59167;SDS011;70412;55.048;73.268;2023-07-29T04:51:39;18.42;;;11.90;;
59167;SDS011;70412;55.048;73.268;2023-07-29T04:54:42;24.45;;;14.40;;
59167;SDS011;70412;55.048;73.268;2023-07-29T04:57:46;35.05;;;17.40;;
59167;SDS011;70412;55.048;73.268;2023-07-29T05:00:49;21.65;;;11.82;;
59167;SDS011;70412;55.048;73.268;2023-07-29T05:03:51;18.58;;;11.48;;
59167;SDS011;70412;55.048;73.268;2023-07-29T05:06:54;69.65;;;24.13;;
59167;SDS011;70412;55.048;73.268;2023-07-29T05:09:57;27.25;;;13.57;;
59167;SDS011;70412;55.048;73.268;2023-07-29T05:12:59;16.88;;;12.23;;
59167;SDS011;70412;55.048;73.268;2023-07-29T05:16:04;18.87;;;12.33;;
59167;SDS011;70412;55.048;73.268;2023-07-29T05:22:14;19.95;;;14.35;;
59167;SDS011;70412;55.048;73.268;2023-07-29T05:25:17;14.37;;;11.97;;
59167;SDS011;70412;55.048;73.268;2023-07-29T05:28:19;17.83;;;12.10;;
59167;SDS011;70412;55.048;73.268;2023-07-29T05:31:22;19.75;;;13.25;;
59167;SDS011;70412;55.048;73.268;2023-07-29T05:34:24;25.35;;;16.05;;
59167;SDS011;70412;55.048;73.268;2023-07-29T05:37:27;56.97;;;23.10;;
59167;SDS011;70412;55.048;73.268;2023-07-29T05:40:29;63.75;;;26.73;;
59167;SDS011;70412;55.048;73.268;2023-07-29T05:43:32;77.07;;;32.92;;
59167;SDS011;70412;55.048;73.268;2023-07-29T05:46:34;33.92;;;15.82;;
59167;SDS011;70412;55.048;73.268;2023-07-29T05:49:37;15.20;;;11.88;;
59167;SDS011;70412;55.048;73.268;2023-07-29T05:52:41;16.13;;;13.05;;
59167;SDS011;70412;55.048;73.268;2023-07-29T05:55:43;19.23;;;12.15;;
59167;SDS011;70412;55.048;73.268;2023-07-29T05:58:46;24.98;;;14.27;;
59167;SDS011;70412;55.048;73.268;2023-07-29T06:01:48;24.63;;;15.05;;
59167;SDS011;70412;55.048;73.268;2023-07-29T06:04:51;16.15;;;11.45;;
59167;SDS011;70412;55.048;73.268;2023-07-29T06:07:54;21.77;;;12.88;;
59167;SDS011;70412;55.048;73.268;2023-07-29T06:10:56;41.10;;;16.85;;
59167;SDS011;70412;55.048;73.268;2023-07-29T06:13:59;29.50;;;14.93;;
59167;SDS011;70412;55.048;73.268;2023-07-29T06:17:01;22.45;;;12.57;;
59167;SDS011;70412;55.048;73.268;2023-07-29T06:20:04;17.20;;;10.55;;
59167;SDS011;70412;55.048;73.268;2023-07-29T06:23:07;48.70;;;17.30;;
59167;SDS011;70412;55.048;73.268;2023-07-29T06:26:10;53.95;;;17.38;;
59167;SDS011;70412;55.048;73.268;2023-07-29T06:29:12;37.55;;;13.85;;
59167;SDS011;70412;55.048;73.268;2023-07-29T06:32:15;14.05;;;10.88;;
59167;SDS011;70412;55.048;73.268;2023-07-29T06:35:17;13.20;;;10.20;;
59167;SDS011;70412;55.048;73.268;2023-07-29T06:38:20;44.88;;;15.02;;
59167;SDS011;70412;55.048;73.268;2023-07-29T06:41:23;12.73;;;10.90;;
59167;SDS011;70412;55.048;73.268;2023-07-29T06:44:26;14.15;;;9.40;;
59167;SDS011;70412;55.048;73.268;2023-07-29T06:47:28;19.48;;;10.93;;
59167;SDS011;70412;55.048;73.268;2023-07-29T06:50:30;18.33;;;10.88;;
59167;SDS011;70412;55.048;73.268;2023-07-29T06:53:33;16.05;;;11.43;;
59167;SDS011;70412;55.048;73.268;2023-07-29T06:56:35;23.58;;;12.05;;
59167;SDS011;70412;55.048;73.268;2023-07-29T06:59:38;27.98;;;13.27;;
59167;SDS011;70412;55.048;73.268;2023-07-29T07:02:41;13.57;;;9.52;;
59167;SDS011;70412;55.048;73.268;2023-07-29T07:05:43;12.38;;;10.10;;
59167;SDS011;70412;55.048;73.268;2023-07-29T07:08:46;13.68;;;10.13;;
59167;SDS011;70412;55.048;73.268;2023-07-29T07:11:48;13.52;;;10.10;;
59167;SDS011;70412;55.048;73.268;2023-07-29T07:14:51;14.98;;;10.43;;
59167;SDS011;70412;55.048;73.268;2023-07-29T07:17:53;13.23;;;10.05;;
59167;SDS011;70412;55.048;73.268;2023-07-29T07:20:56;15.18;;;11.38;;
59167;SDS011;70412;55.048;73.268;2023-07-29T07:23:58;14.05;;;9.50;;
59167;SDS011;70412;55.048;73.268;2023-07-29T07:27:02;10.48;;;9.20;;
59167;SDS011;70412;55.048;73.268;2023-07-29T07:30:04;15.73;;;10.52;;
59167;SDS011;70412;55.048;73.268;2023-07-29T07:33:07;14.68;;;10.68;;
59167;SDS011;70412;55.048;73.268;2023-07-29T07:36:10;11.88;;;9.80;;
59167;SDS011;70412;55.048;73.268;2023-07-29T07:39:13;16.10;;;9.88;;
59167;SDS011;70412;55.048;73.268;2023-07-29T07:42:15;21.38;;;14.20;;
59167;SDS011;70412;55.048;73.268;2023-07-29T07:45:18;16.02;;;10.20;;
59167;SDS011;70412;55.048;73.268;2023-07-29T07:48:20;15.13;;;10.82;;
59167;SDS011;70412;55.048;73.268;2023-07-29T07:51:23;15.95;;;10.63;;
59167;SDS011;70412;55.048;73.268;2023-07-29T07:54:25;13.77;;;10.05;;
59167;SDS011;70412;55.048;73.268;2023-07-29T07:57:27;20.60;;;11.18;;
59167;SDS011;70412;55.048;73.268;2023-07-29T08:00:30;10.98;;;9.45;;
59167;SDS011;70412;55.048;73.268;2023-07-29T08:03:33;15.98;;;9.35;;
59167;SDS011;70412;55.048;73.268;2023-07-29T08:06:38;14.17;;;9.72;;
59167;SDS011;70412;55.048;73.268;2023-07-29T08:09:40;14.30;;;9.88;;
59167;SDS011;70412;55.048;73.268;2023-07-29T08:12:43;13.25;;;9.10;;
59167;SDS011;70412;55.048;73.268;2023-07-29T08:15:46;13.60;;;8.65;;
59167;SDS011;70412;55.048;73.268;2023-07-29T08:18:49;13.02;;;9.70;;
59167;SDS011;70412;55.048;73.268;2023-07-29T08:21:52;10.88;;;9.13;;
59167;SDS011;70412;55.048;73.268;2023-07-29T08:24:54;12.75;;;9.43;;
59167;SDS011;70412;55.048;73.268;2023-07-29T08:27:57;12.10;;;8.48;;
59167;SDS011;70412;55.048;73.268;2023-07-29T08:30:59;10.70;;;9.00;;
59167;SDS011;70412;55.048;73.268;2023-07-29T08:34:02;11.40;;;9.50;;
59167;SDS011;70412;55.048;73.268;2023-07-29T08:37:05;15.05;;;9.57;;
59167;SDS011;70412;55.048;73.268;2023-07-29T08:40:08;10.52;;;8.95;;
59167;SDS011;70412;55.048;73.268;2023-07-29T08:43:12;11.90;;;8.27;;
59167;SDS011;70412;55.048;73.268;2023-07-29T08:46:19;12.23;;;9.93;;
59167;SDS011;70412;55.048;73.268;2023-07-29T08:49:22;8.68;;;7.55;;
59167;SDS011;70412;55.048;73.268;2023-07-29T08:52:25;10.00;;;8.63;;
59167;SDS011;70412;55.048;73.268;2023-07-29T08:55:30;11.80;;;9.68;;
59167;SDS011;70412;55.048;73.268;2023-07-29T08:58:33;11.45;;;8.45;;
59167;SDS011;70412;55.048;73.268;2023-07-29T09:01:37;10.05;;;7.45;;
59167;SDS011;70412;55.048;73.268;2023-07-29T09:04:40;11.48;;;8.05;;
59167;SDS011;70412;55.048;73.268;2023-07-29T09:07:43;13.43;;;8.90;;
59167;SDS011;70412;55.048;73.268;2023-07-29T09:10:46;9.52;;;7.65;;
59167;SDS011;70412;55.048;73.268;2023-07-29T09:13:49;11.48;;;8.65;;
59167;SDS011;70412;55.048;73.268;2023-07-29T09:16:51;11.10;;;7.97;;
59167;SDS011;70412;55.048;73.268;2023-07-29T09:19:54;10.63;;;7.85;;
59167;SDS011;70412;55.048;73.268;2023-07-29T09:22:58;12.00;;;7.68;;
59167;SDS011;70412;55.048;73.268;2023-07-29T09:26:04;11.70;;;7.40;;
59167;SDS011;70412;55.048;73.268;2023-07-29T09:29:09;10.07;;;7.22;;
59167;SDS011;70412;55.048;73.268;2023-07-29T09:32:22;14.70;;;7.72;;
59167;SDS011;70412;55.048;73.268;2023-07-29T09:35:27;11.18;;;7.10;;
59167;SDS011;70412;55.048;73.268;2023-07-29T09:38:32;9.95;;;8.30;;
59167;SDS011;70412;55.048;73.268;2023-07-29T09:41:34;10.65;;;7.65;;
59167;SDS011;70412;55.048;73.268;2023-07-29T09:44:39;15.45;;;7.70;;
59167;SDS011;70412;55.048;73.268;2023-07-29T09:47:41;10.73;;;7.70;;
59167;SDS011;70412;55.048;73.268;2023-07-29T09:50:48;13.40;;;7.38;;
59167;SDS011;70412;55.048;73.268;2023-07-29T09:53:53;12.30;;;7.40;;
59167;SDS011;70412;55.048;73.268;2023-07-29T09:56:56;13.02;;;7.88;;
59167;SDS011;70412;55.048;73.268;2023-07-29T09:59:59;9.13;;;7.40;;
59167;SDS011;70412;55.048;73.268;2023-07-29T10:03:03;8.43;;;7.40;;
59167;SDS011;70412;55.048;73.268;2023-07-29T10:06:06;10.43;;;7.68;;
59167;SDS011;70412;55.048;73.268;2023-07-29T10:09:10;11.00;;;8.10;;
59167;SDS011;70412;55.048;73.268;2023-07-29T10:12:14;8.93;;;7.10;;
59167;SDS011;70412;55.048;73.268;2023-07-29T10:15:18;8.73;;;7.00;;
59167;SDS011;70412;55.048;73.268;2023-07-29T10:18:21;8.20;;;6.13;;
59167;SDS011;70412;55.048;73.268;2023-07-29T10:21:24;8.93;;;6.68;;
59167;SDS011;70412;55.048;73.268;2023-07-29T10:24:29;11.00;;;6.75;;
59167;SDS011;70412;55.048;73.268;2023-07-29T10:27:40;9.20;;;6.20;;
59167;SDS011;70412;55.048;73.268;2023-07-29T10:30:45;8.82;;;5.63;;
59167;SDS011;70412;55.048;73.268;2023-07-29T10:33:49;11.65;;;6.97;;
59167;SDS011;70412;55.048;73.268;2023-07-29T10:36:52;22.55;;;7.68;;
59167;SDS011;70412;55.048;73.268;2023-07-29T10:39:55;93.88;;;16.63;;
59167;SDS011;70412;55.048;73.268;2023-07-29T10:43:02;28.38;;;13.75;;
59167;SDS011;70412;55.048;73.268;2023-07-29T10:46:20;36.90;;;11.60;;
59167;SDS011;70412;55.048;73.268;2023-07-29T10:49:24;50.22;;;12.57;;
59167;SDS011;70412;55.048;73.268;2023-07-29T10:55:38;22.63;;;8.50;;
59167;SDS011;70412;55.048;73.268;2023-07-29T10:58:41;10.98;;;6.30;;
59167;SDS011;70412;55.048;73.268;2023-07-29T11:01:57;25.80;;;15.07;;
59167;SDS011;70412;55.048;73.268;2023-07-29T11:08:28;18.14;;;10.56;;
59167;SDS011;70412;55.048;73.268;2023-07-29T11:11:32;50.42;;;17.27;;
59167;SDS011;70412;55.048;73.268;2023-07-29T11:14:36;80.20;;;14.50;;
59167;SDS011;70412;55.048;73.268;2023-07-29T11:17:43;52.78;;;11.88;;
59167;SDS011;70412;55.048;73.268;2023-07-29T11:20:47;15.68;;;6.18;;
59167;SDS011;70412;55.048;73.268;2023-07-29T11:23:50;7.40;;;4.95;;
59167;SDS011;70412;55.048;73.268;2023-07-29T11:26:56;9.02;;;5.50;;
59167;SDS011;70412;55.048;73.268;2023-07-29T11:29:59;8.13;;;5.30;;
59167;SDS011;70412;55.048;73.268;2023-07-29T11:33:04;9.85;;;4.97;;
59167;SDS011;70412;55.048;73.268;2023-07-29T11:36:16;10.80;;;5.65;;
59167;SDS011;70412;55.048;73.268;2023-07-29T11:39:20;8.45;;;5.50;;
59167;SDS011;70412;55.048;73.268;2023-07-29T11:42:22;9.55;;;4.93;;
59167;SDS011;70412;55.048;73.268;2023-07-29T11:45:25;10.57;;;6.95;;
59167;SDS011;70412;55.048;73.268;2023-07-29T11:48:31;11.00;;;8.70;;
59167;SDS011;70412;55.048;73.268;2023-07-29T11:51:35;11.23;;;7.97;;
59167;SDS011;70412;55.048;73.268;2023-07-29T11:54:39;12.25;;;5.88;;
59167;SDS011;70412;55.048;73.268;2023-07-29T11:57:42;10.25;;;5.82;;
59167;SDS011;70412;55.048;73.268;2023-07-29T12:00:48;6.65;;;4.47;;
59167;SDS011;70412;55.048;73.268;2023-07-29T12:03:51;18.73;;;5.95;;
59167;SDS011;70412;55.048;73.268;2023-07-29T12:06:53;15.40;;;5.97;;
59167;SDS011;70412;55.048;73.268;2023-07-29T12:09:57;12.88;;;5.00;;
59167;SDS011;70412;55.048;73.268;2023-07-29T12:12:59;13.23;;;6.55;;
59167;SDS011;70412;55.048;73.268;2023-07-29T12:16:05;37.50;;;9.88;;
59167;SDS011;70412;55.048;73.268;2023-07-29T12:19:07;17.17;;;5.70;;
59167;SDS011;70412;55.048;73.268;2023-07-29T12:22:10;10.80;;;4.80;;
59167;SDS011;70412;55.048;73.268;2023-07-29T12:25:12;9.20;;;5.53;;
59167;SDS011;70412;55.048;73.268;2023-07-29T12:28:14;8.48;;;4.70;;
59167;SDS011;70412;55.048;73.268;2023-07-29T12:31:17;8.80;;;5.05;;
59167;SDS011;70412;55.048;73.268;2023-07-29T12:34:19;8.63;;;5.53;;
59167;SDS011;70412;55.048;73.268;2023-07-29T12:37:30;9.85;;;6.53;;
59167;SDS011;70412;55.048;73.268;2023-07-29T12:40:38;13.93;;;6.15;;
59167;SDS011;70412;55.048;73.268;2023-07-29T12:43:44;54.45;;;10.90;;
59167;SDS011;70412;55.048;73.268;2023-07-29T12:46:47;23.95;;;6.63;;
59167;SDS011;70412;55.048;73.268;2023-07-29T12:49:49;10.60;;;5.97;;
59167;SDS011;70412;55.048;73.268;2023-07-29T12:52:52;37.35;;;8.38;;
59167;SDS011;70412;55.048;73.268;2023-07-29T12:55:55;44.17;;;9.02;;
59167;SDS011;70412;55.048;73.268;2023-07-29T12:58:57;28.92;;;7.25;;
59167;SDS011;70412;55.048;73.268;2023-07-29T13:02:00;20.58;;;12.93;;
59167;SDS011;70412;55.048;73.268;2023-07-29T13:05:04;26.52;;;9.20;;
59167;SDS011;70412;55.048;73.268;2023-07-29T13:08:08;24.02;;;17.90;;
59167;SDS011;70412;55.048;73.268;2023-07-29T13:11:12;20.30;;;5.60;;
59167;SDS011;70412;55.048;73.268;2023-07-29T13:14:14;12.85;;;8.05;;
59167;SDS011;70412;55.048;73.268;2023-07-29T13:17:17;14.15;;;8.45;;
59167;SDS011;70412;55.048;73.268;2023-07-29T13:20:20;7.55;;;6.07;;
59167;SDS011;70412;55.048;73.268;2023-07-29T13:23:24;6.88;;;5.47;;
59167;SDS011;70412;55.048;73.268;2023-07-29T13:26:26;8.18;;;4.40;;
59167;SDS011;70412;55.048;73.268;2023-07-29T13:29:29;7.15;;;4.07;;
59167;SDS011;70412;55.048;73.268;2023-07-29T13:32:31;7.05;;;4.40;;
59167;SDS011;70412;55.048;73.268;2023-07-29T13:35:34;5.85;;;4.25;;
59167;SDS011;70412;55.048;73.268;2023-07-29T13:38:36;6.03;;;4.18;;
59167;SDS011;70412;55.048;73.268;2023-07-29T13:41:38;8.05;;;3.92;;
59167;SDS011;70412;55.048;73.268;2023-07-29T13:44:41;4.97;;;3.88;;
59167;SDS011;70412;55.048;73.268;2023-07-29T13:47:43;6.57;;;3.95;;
59167;SDS011;70412;55.048;73.268;2023-07-29T13:50:46;5.78;;;4.32;;
59167;SDS011;70412;55.048;73.268;2023-07-29T13:53:48;6.53;;;4.43;;
59167;SDS011;70412;55.048;73.268;2023-07-29T13:56:51;6.32;;;4.25;;
59167;SDS011;70412;55.048;73.268;2023-07-29T13:59:55;9.42;;;4.46;;
59167;SDS011;70412;55.048;73.268;2023-07-29T14:02:58;6.65;;;4.28;;
59167;SDS011;70412;55.048;73.268;2023-07-29T14:06:00;9.50;;;4.97;;
59167;SDS011;70412;55.048;73.268;2023-07-29T14:09:02;43.17;;;8.65;;
59167;SDS011;70412;55.048;73.268;2023-07-29T14:12:05;18.40;;;5.63;;
59167;SDS011;70412;55.048;73.268;2023-07-29T14:15:08;27.65;;;7.00;;
59167;SDS011;70412;55.048;73.268;2023-07-29T14:18:11;16.48;;;5.80;;
59167;SDS011;70412;55.048;73.268;2023-07-29T14:21:13;20.95;;;5.70;;
59167;SDS011;70412;55.048;73.268;2023-07-29T14:24:16;8.63;;;3.60;;
59167;SDS011;70412;55.048;73.268;2023-07-29T14:27:18;8.50;;;3.10;;
59167;SDS011;70412;55.048;73.268;2023-07-29T14:30:30;10.07;;;3.30;;
59167;SDS011;70412;55.048;73.268;2023-07-29T14:33:33;9.48;;;3.70;;
59167;SDS011;70412;55.048;73.268;2023-07-29T14:36:35;6.75;;;3.35;;
59167;SDS011;70412;55.048;73.268;2023-07-29T14:39:38;8.18;;;3.50;;
59167;SDS011;70412;55.048;73.268;2023-07-29T14:42:40;8.15;;;3.42;;
59167;SDS011;70412;55.048;73.268;2023-07-29T14:45:45;9.57;;;3.80;;
59167;SDS011;70412;55.048;73.268;2023-07-29T14:48:47;9.07;;;3.15;;
59167;SDS011;70412;55.048;73.268;2023-07-29T14:51:50;7.13;;;3.15;;
59167;SDS011;70412;55.048;73.268;2023-07-29T14:54:52;7.00;;;3.17;;
59167;SDS011;70412;55.048;73.268;2023-07-29T14:57:54;6.60;;;3.05;;
59167;SDS011;70412;55.048;73.268;2023-07-29T15:00:56;7.57;;;3.17;;
59167;SDS011;70412;55.048;73.268;2023-07-29T15:03:59;5.25;;;3.08;;
59167;SDS011;70412;55.048;73.268;2023-07-29T15:07:02;5.35;;;3.47;;
59167;SDS011;70412;55.048;73.268;2023-07-29T15:10:04;4.20;;;2.97;;
59167;SDS011;70412;55.048;73.268;2023-07-29T15:13:07;9.40;;;4.67;;
59167;SDS011;70412;55.048;73.268;2023-07-29T15:16:12;8.70;;;3.60;;
59167;SDS011;70412;55.048;73.268;2023-07-29T15:19:14;4.85;;;3.10;;
59167;SDS011;70412;55.048;73.268;2023-07-29T15:22:16;5.93;;;3.30;;
59167;SDS011;70412;55.048;73.268;2023-07-29T15:25:19;5.35;;;3.30;;
59167;SDS011;70412;55.048;73.268;2023-07-29T15:28:21;6.88;;;3.30;;
59167;SDS011;70412;55.048;73.268;2023-07-29T15:31:24;4.82;;;3.50;;
59167;SDS011;70412;55.048;73.268;2023-07-29T15:34:26;6.53;;;3.28;;
59167;SDS011;70412;55.048;73.268;2023-07-29T15:37:33;7.25;;;3.20;;
59167;SDS011;70412;55.048;73.268;2023-07-29T15:40:35;6.65;;;3.30;;
59167;SDS011;70412;55.048;73.268;2023-07-29T15:43:39;6.88;;;3.97;;
59167;SDS011;70412;55.048;73.268;2023-07-29T15:46:42;11.63;;;4.18;;
59167;SDS011;70412;55.048;73.268;2023-07-29T15:49:44;12.45;;;4.80;;
59167;SDS011;70412;55.048;73.268;2023-07-29T15:52:47;16.60;;;6.10;;
59167;SDS011;70412;55.048;73.268;2023-07-29T15:55:49;18.55;;;7.40;;
59167;SDS011;70412;55.048;73.268;2023-07-29T15:58:52;18.88;;;5.50;;
59167;SDS011;70412;55.048;73.268;2023-07-29T16:01:54;17.08;;;6.07;;
59167;SDS011;70412;55.048;73.268;2023-07-29T16:04:57;18.33;;;5.85;;
59167;SDS011;70412;55.048;73.268;2023-07-29T16:07:59;11.55;;;4.80;;
59167;SDS011;70412;55.048;73.268;2023-07-29T16:11:03;7.48;;;3.70;;
59167;SDS011;70412;55.048;73.268;2023-07-29T16:14:06;6.55;;;3.50;;
59167;SDS011;70412;55.048;73.268;2023-07-29T16:17:09;10.82;;;3.83;;
59167;SDS011;70412;55.048;73.268;2023-07-29T16:20:12;14.27;;;6.88;;
59167;SDS011;70412;55.048;73.268;2023-07-29T16:23:14;14.60;;;8.90;;
59167;SDS011;70412;55.048;73.268;2023-07-29T16:26:17;11.75;;;6.28;;
59167;SDS011;70412;55.048;73.268;2023-07-29T16:29:21;9.32;;;5.35;;
59167;SDS011;70412;55.048;73.268;2023-07-29T16:32:23;7.10;;;4.20;;
59167;SDS011;70412;55.048;73.268;2023-07-29T16:35:25;6.65;;;4.40;;
59167;SDS011;70412;55.048;73.268;2023-07-29T16:38:28;7.43;;;4.22;;
59167;SDS011;70412;55.048;73.268;2023-07-29T16:41:30;7.50;;;5.50;;
59167;SDS011;70412;55.048;73.268;2023-07-29T16:44:37;7.53;;;4.80;;
59167;SDS011;70412;55.048;73.268;2023-07-29T16:47:41;7.35;;;4.32;;
59167;SDS011;70412;55.048;73.268;2023-07-29T16:50:45;5.63;;;3.72;;
59167;SDS011;70412;55.048;73.268;2023-07-29T16:53:47;5.05;;;3.80;;
59167;SDS011;70412;55.048;73.268;2023-07-29T16:56:51;6.95;;;3.50;;
59167;SDS011;70412;55.048;73.268;2023-07-29T16:59:53;4.65;;;3.17;;
59167;SDS011;70412;55.048;73.268;2023-07-29T17:02:56;4.70;;;3.00;;
59167;SDS011;70412;55.048;73.268;2023-07-29T17:05:58;6.32;;;2.92;;
59167;SDS011;70412;55.048;73.268;2023-07-29T17:09:00;3.85;;;2.65;;
59167;SDS011;70412;55.048;73.268;2023-07-29T17:12:03;5.30;;;2.67;;
59167;SDS011;70412;55.048;73.268;2023-07-29T17:15:07;6.47;;;2.38;;
59167;SDS011;70412;55.048;73.268;2023-07-29T17:18:10;5.95;;;2.40;;
59167;SDS011;70412;55.048;73.268;2023-07-29T17:21:16;4.90;;;2.60;;
59167;SDS011;70412;55.048;73.268;2023-07-29T17:24:18;4.13;;;2.20;;
59167;SDS011;70412;55.048;73.268;2023-07-29T17:27:20;3.17;;;2.20;;
59167;SDS011;70412;55.048;73.268;2023-07-29T17:30:23;2.95;;;2.03;;
59167;SDS011;70412;55.048;73.268;2023-07-29T17:33:35;4.13;;;2.42;;
59167;SDS011;70412;55.048;73.268;2023-07-29T17:37:07;4.93;;;2.65;;
59167;SDS011;70412;55.048;73.268;2023-07-29T17:43:27;3.58;;;2.45;;
59167;SDS011;70412;55.048;73.268;2023-07-29T17:46:30;4.22;;;2.85;;
59167;SDS011;70412;55.048;73.268;2023-07-29T17:49:33;2.95;;;2.35;;
59167;SDS011;70412;55.048;73.268;2023-07-29T17:52:35;2.47;;;1.92;;
59167;SDS011;70412;55.048;73.268;2023-07-29T17:55:38;3.55;;;2.20;;
59167;SDS011;70412;55.048;73.268;2023-07-29T17:58:41;3.72;;;2.25;;
59167;SDS011;70412;55.048;73.268;2023-07-29T18:01:43;6.13;;;2.55;;
59167;SDS011;70412;55.048;73.268;2023-07-29T18:04:50;4.68;;;2.30;;
59167;SDS011;70412;55.048;73.268;2023-07-29T18:07:52;4.93;;;2.58;;